CDT,Max TemperatureF,Mean TemperatureF,Min TemperatureF,Max Dew PointF,MeanDew PointF,Min DewpointF,Max Humidity, Mean Humidity, Min Humidity, Max Sea Level PressureIn, Mean Sea Level PressureIn, Min Sea Level PressureIn, Max VisibilityMiles, Mean VisibilityMiles, Min VisibilityMiles, Max Wind SpeedMPH, Mean Wind SpeedMPH, Max Gust SpeedMPH,PrecipitationIn, CloudCover, Events, WindDirDegrees
2014-3-1,3,-3,-9,-2,-11,-18,85,72,59,30.47,30.36,30.18,10,5,1,16,11,22,0.00,5,Snow,7
2014-3-2,1,-6,-14,-9,-16,-22,77,65,51,30.52,30.47,30.43,10,10,10,17,8,21,0.00,0,,324
2014-3-3,8,0,-9,3,-5,-15,84,72,61,30.47,30.25,30.03,10,10,3,23,8,25,0.00,4,,181
2014-3-4,19,11,3,12,6,-2,92,79,67,30.18,30.04,29.99,10,7,1,16,8,22,0.00,3,Snow,99
2014-3-5,19,14,8,16,11,7,93,87,79,30.31,30.24,30.17,10,6,1,21,8,26,0.00,4,Snow,125
2014-3-6,30,22,15,28,23,12,93,92,86,30.17,29.89,29.67,5,2,0,31,21,36,0.00,5,Snow,192
2014-3-7,32,22,12,30,20,10,100,85,74,30.22,29.95,29.66,10,7,0,20,10,26,0.00,4,Snow,9
2014-3-8,26,16,6,19,12,3,92,82,69,30.30,30.23,30.11,10,10,10,12,5,,0.06,2,,278
2014-3-9,46,34,21,37,29,16,87,78,66,30.09,29.81,29.71,10,10,10,21,13,,0.27,0,,225
2014-3-10,48,42,37,39,35,32,93,77,61,29.75,29.71,29.66,10,10,10,14,7,,0.01,1,,314
2014-3-11,42,34,26,37,32,23,100,87,75,30.10,29.87,29.65,10,10,2,21,12,28,0.02,4,Rain-Snow,33
2014-3-12,33,28,24,32,24,19,93,85,80,30.11,30.06,29.95,10,10,5,12,6,,0.00,6,Snow,166
2014-3-13,57,42,28,43,34,27,100,78,48,29.94,29.76,29.58,10,10,7,16,8,,0.00,1,,244
2014-3-14,44,38,32,34,31,28,93,76,61,29.93,29.78,29.59,10,10,10,22,13,30,0.00,3,,334
2014-3-15,30,27,24,28,22,16,93,78,64,30.35,30.08,29.90,10,10,2,15,10,22,0.00,4,Snow,74
2014-3-16,30,22,15,19,16,12,93,72,59,30.39,30.23,29.86,10,10,10,24,11,29,0.00,1,,137
2014-3-17,48,37,26,34,25,16,76,63,53,29.85,29.52,29.36,10,10,10,23,17,29,0.00,2,,182
2014-3-18,37,32,28,30,29,27,100,90,75,29.84,29.61,29.39,10,7,0,25,14,34,0.00,6,Snow,55
2014-3-19,39,34,28,34,29,25,100,85,65,29.98,29.93,29.85,10,10,3,15,11,23,0.04,5,Rain,314
2014-3-20,51,38,24,36,30,25,100,76,41,29.98,29.89,29.75,10,8,0,18,4,23,0.01,1,Fog,170
2014-3-21,39,29,19,34,27,10,100,78,60,30.26,29.90,29.70,10,10,10,29,16,40,0.00,4,,326
2014-3-22,24,17,10,12,7,1,79,64,46,30.47,30.38,30.26,10,10,10,18,12,25,0.00,1,,3
2014-3-23,28,19,10,19,11,7,93,68,47,30.48,30.38,30.25,10,10,7,8,1,,0.00,2,,189
2014-3-24,32,26,21,27,19,12,100,77,44,30.27,30.21,30.15,10,8,2,23,7,36,0.00,6,Snow,302
2014-3-25,26,18,10,16,8,3,85,61,40,30.30,30.20,30.05,10,10,5,20,12,34,0.00,2,Snow,322
2014-3-26,57,38,19,39,22,9,81,54,35,30.04,29.67,29.37,10,10,10,34,18,41,0.00,1,,185
2014-3-27,44,35,26,39,32,23,100,91,80,29.82,29.49,29.36,10,6,0,28,17,34,0.02,8,Fog-Snow,33
2014-3-28,28,22,15,23,17,10,86,77,64,30.25,30.06,29.83,10,10,10,14,8,18,0.05,2,,27
2014-3-29,46,32,17,34,24,14,93,75,57,30.24,30.11,29.87,10,10,10,23,7,29,0.04,0,,186
2014-3-30,62,50,37,43,35,30,81,61,37,29.87,29.75,29.61,10,9,7,22,14,26,0.00,0,,178
2014-3-31,68,42,15,46,35,12,93,68,40,29.70,29.43,29.22,10,9,1,37,17,47,0.00,3,Snow-Thunderstorm,178